Terminal Aerodrome Forecast
Issued by NWS

Home | Current Version | Previous Version | Text Only | Print | Product List | Glossary On
Versions: 1 2 3 4 5 6 7 8 9 10 11 12 13 14 15 16 17 18 19 20 21 22
000
FTUS41 KBTV 010541
TAFRUT
TAF
KRUT 010541Z 0106/0206 VRB03KT P6SM SKC
     FM010900 VRB03KT P6SM OVC050
     FM011500 33009KT P6SM SCT040 SCT200
     FM012000 34006KT P6SM BKN130 OVC150
     FM020400 10005KT P6SM OVC070
      AMD LTD TO CLD VIS AND WIND=

USA.gov is the U.S. government's official web portal to all federal, state and local government web resources and services.